Time;durP1;ratioP1;P1;durP2;ratioP2;P2;SDS_P1;SDS_P2;PMS_P1;PMS_P2;Temp;Humidity;BMP_temperature;BMP_pressure;BME280_temperature;BME280_humidity;BME280_pressure;Samples;Min_cycle;Max_cycle;Signal;HPM_P1;HPM_P2
2023/10/30 00:00:23;;;;;;;3.35;0.82;;;11.00;99.90;;;;;;5119303;28;20123;-73
2023/10/30 00:02:49;;;;;;;1.63;0.55;;;11.10;99.90;;;;;;5118745;28;20043;-73
2023/10/30 00:05:15;;;;;;;2.97;0.90;;;11.10;99.90;;;;;;5119173;28;20031;-73
2023/10/30 00:07:41;;;;;;;3.88;0.90;;;11.10;99.90;;;;;;5118762;28;20106;-72
2023/10/30 00:10:07;;;;;;;3.20;0.60;;;11.10;99.90;;;;;;5118917;28;20526;-73
2023/10/30 00:12:33;;;;;;;3.15;0.70;;;11.10;99.90;;;;;;5118699;28;20028;-73
2023/10/30 00:15:02;;;;;;;2.63;0.90;;;11.10;99.90;;;;;;5118945;28;20034;-72
2023/10/30 00:17:30;;;;;;;3.22;0.85;;;11.20;99.90;;;;;;5118666;28;20028;-73
2023/10/30 00:19:55;;;;;;;1.85;0.75;;;11.20;99.90;;;;;;5118894;28;20383;-72
2023/10/30 00:22:21;;;;;;;3.05;0.90;;;11.30;99.90;;;;;;5118672;28;20023;-73
2023/10/30 00:24:47;;;;;;;3.15;0.80;;;11.30;99.90;;;;;;5099971;28;20020;-73
2023/10/30 00:27:13;;;;;;;2.00;0.65;;;11.30;99.90;;;;;;5118269;28;20035;-73
2023/10/30 00:29:40;;;;;;;3.17;0.75;;;11.30;99.90;;;;;;5118532;28;20022;-73
2023/10/30 00:32:07;;;;;;;3.50;0.80;;;11.30;99.90;;;;;;5100140;28;20392;-73
2023/10/30 00:34:33;;;;;;;3.33;1.00;;;11.30;99.90;;;;;;5118521;28;20104;-73
2023/10/30 00:36:59;;;;;;;4.10;0.82;;;11.30;99.90;;;;;;5118298;28;20038;-72
2023/10/30 00:39:25;;;;;;;2.65;0.77;;;11.30;99.90;;;;;;5116934;28;20020;-73
2023/10/30 00:41:51;;;;;;;1.65;0.63;;;11.30;99.90;;;;;;5099441;28;20024;-72
2023/10/30 00:44:16;;;;;;;3.60;0.73;;;11.30;99.90;;;;;;5117972;28;20437;-73
2023/10/30 00:46:43;;;;;;;2.35;0.88;;;11.30;99.90;;;;;;5118172;28;20027;-73
2023/10/30 00:49:09;;;;;;;2.00;0.80;;;11.40;99.90;;;;;;5118118;28;20051;-72
2023/10/30 00:51:34;;;;;;;4.05;0.93;;;11.40;99.90;;;;;;5127573;27;20027;-72
2023/10/30 00:54:00;;;;;;;2.92;0.63;;;11.40;99.90;;;;;;5099934;28;20164;-73
2023/10/30 00:56:25;;;;;;;4.38;0.80;;;11.40;99.90;;;;;;5117679;28;20395;-72
2023/10/30 00:58:51;;;;;;;2.53;0.90;;;11.40;99.90;;;;;;5118008;28;20089;-72
2023/10/30 01:01:17;;;;;;;2.53;0.70;;;11.40;99.90;;;;;;5117697;28;20667;-72
2023/10/30 01:03:44;;;;;;;3.47;0.68;;;11.40;99.90;;;;;;5117961;28;20012;-73
2023/10/30 01:06:09;;;;;;;4.80;1.13;;;11.40;99.90;;;;;;5118063;28;20026;-73
2023/10/30 01:08:35;;;;;;;2.25;0.85;;;11.40;99.90;;;;;;5117955;28;20487;-72
2023/10/30 01:11:01;;;;;;;3.70;0.88;;;11.40;99.90;;;;;;5117518;28;20051;-72
2023/10/30 01:13:26;;;;;;;4.25;0.98;;;11.40;99.90;;;;;;5117814;28;20058;-72
2023/10/30 01:15:56;;;;;;;6.70;1.00;;;11.50;99.90;;;;;;5099496;28;20028;-72
2023/10/30 01:18:21;;;;;;;5.32;0.90;;;11.40;99.90;;;;;;5117714;28;20020;-73
2023/10/30 01:20:47;;;;;;;2.08;0.63;;;11.40;99.90;;;;;;5117658;28;20039;-73
2023/10/30 01:23:16;;;;;;;1.52;0.70;;;11.50;99.90;;;;;;5117731;28;20040;-72
2023/10/30 01:25:42;;;;;;;3.75;0.80;;;11.40;99.90;;;;;;5099012;28;20023;-72
2023/10/30 01:28:07;;;;;;;2.20;0.68;;;11.40;99.90;;;;;;5099416;28;20466;-73
2023/10/30 01:30:33;;;;;;;2.58;0.63;;;11.50;99.90;;;;;;5117554;28;20027;-73
2023/10/30 01:32:59;;;;;;;4.05;0.85;;;11.50;99.90;;;;;;5117806;28;20395;-73
2023/10/30 01:35:25;;;;;;;3.85;0.77;;;11.40;99.90;;;;;;5117507;28;20464;-73
2023/10/30 01:37:51;;;;;;;4.43;0.90;;;11.50;99.90;;;;;;5117583;28;20076;-73
2023/10/30 01:40:16;;;;;;;3.55;0.60;;;11.40;99.90;;;;;;5111091;28;20035;-73
2023/10/30 01:42:42;;;;;;;4.85;0.98;;;11.50;99.90;;;;;;5121070;28;20028;-71
2023/10/30 01:45:08;;;;;;;2.05;0.60;;;11.50;99.90;;;;;;5103239;28;20020;-71
2023/10/30 01:47:34;;;;;;;3.63;0.65;;;11.50;99.90;;;;;;5121579;28;20382;-71
2023/10/30 01:50:01;;;;;;;4.30;0.77;;;11.50;99.90;;;;;;5121843;27;20062;-71
2023/10/30 01:52:29;;;;;;;5.88;0.88;;;11.50;99.90;;;;;;5111452;28;20026;-72
2023/10/30 01:54:56;;;;;;;3.58;0.75;;;11.50;99.90;;;;;;5103131;28;20475;-71
2023/10/30 01:57:23;;;;;;;3.35;0.68;;;11.50;99.90;;;;;;5121369;28;20065;-72
2023/10/30 01:59:52;;;;;;;2.60;0.57;;;11.60;99.90;;;;;;5121339;28;20020;-74
2023/10/30 02:02:22;;;;;;;3.92;0.90;;;11.50;99.90;;;;;;5121330;28;20519;-72
2023/10/30 02:04:48;;;;;;;3.60;0.90;;;11.50;99.90;;;;;;5103192;28;20028;-73
2023/10/30 02:07:15;;;;;;;2.40;0.60;;;11.60;99.90;;;;;;5121518;28;20072;-71
2023/10/30 02:09:40;;;;;;;3.20;0.68;;;11.60;99.90;;;;;;5103150;28;20020;-71
2023/10/30 02:12:06;;;;;;;2.85;0.77;;;11.70;99.90;;;;;;5121102;28;20030;-71
2023/10/30 02:14:33;;;;;;;4.30;0.93;;;11.70;99.90;;;;;;5102995;28;20438;-71
2023/10/30 02:16:58;;;;;;;2.85;0.80;;;11.70;99.90;;;;;;5121389;28;20049;-73
2023/10/30 02:19:26;;;;;;;3.42;0.70;;;11.70;99.90;;;;;;5121110;28;20444;-71
2023/10/30 02:21:52;;;;;;;1.73;0.52;;;11.70;99.90;;;;;;5120833;28;20026;-73
2023/10/30 02:24:19;;;;;;;1.33;0.50;;;11.70;99.90;;;;;;5107520;28;20404;-73
2023/10/30 02:26:44;;;;;;;2.67;0.60;;;11.70;99.90;;;;;;5120770;28;20069;-73
2023/10/30 02:29:10;;;;;;;2.70;0.80;;;11.80;99.90;;;;;;5102520;28;20035;-71
2023/10/30 02:31:36;;;;;;;1.58;0.55;;;11.70;99.90;;;;;;5120941;28;20024;-72
2023/10/30 02:34:02;;;;;;;3.65;0.80;;;11.80;99.90;;;;;;5121148;28;20027;-72
2023/10/30 02:36:28;;;;;;;3.60;0.70;;;11.80;99.90;;;;;;5120698;28;20041;-72
2023/10/30 02:38:54;;;;;;;5.75;0.82;;;11.80;99.90;;;;;;5120696;28;20039;-72
2023/10/30 02:41:20;;;;;;;4.75;0.82;;;11.80;99.90;;;;;;5120162;28;20026;-72
2023/10/30 02:43:46;;;;;;;2.58;0.82;;;11.80;99.90;;;;;;5120947;28;20020;-71
2023/10/30 02:46:11;;;;;;;2.63;0.60;;;11.80;99.90;;;;;;5120661;28;20016;-71
2023/10/30 02:48:37;;;;;;;4.28;0.75;;;11.80;99.90;;;;;;5120659;28;20030;-71
2023/10/30 02:51:03;;;;;;;2.45;0.68;;;11.80;99.90;;;;;;5129711;27;20070;-71
2023/10/30 02:53:29;;;;;;;2.47;0.50;;;11.90;99.90;;;;;;5119274;28;20028;-71
2023/10/30 02:55:54;;;;;;;1.50;0.40;;;11.80;99.90;;;;;;5101741;28;20426;-70
2023/10/30 02:58:20;;;;;;;3.67;0.60;;;11.80;99.90;;;;;;5120512;28;20027;-72
2023/10/30 03:00:46;;;;;;;3.70;0.60;;;11.90;99.90;;;;;;5120150;28;20023;-72
2023/10/30 03:03:12;;;;;;;1.40;0.50;;;11.90;99.90;;;;;;5120604;28;20027;-72
2023/10/30 03:05:38;;;;;;;2.60;0.70;;;11.90;99.90;;;;;;5120206;28;20047;-73
2023/10/30 03:08:03;;;;;;;2.00;0.60;;;12.00;99.90;;;;;;5120442;28;20027;-72
2023/10/30 03:10:29;;;;;;;1.77;0.60;;;12.00;99.90;;;;;;5119927;28;20438;-71
2023/10/30 03:12:55;;;;;;;2.88;0.68;;;12.00;99.90;;;;;;5101867;28;20027;-72
2023/10/30 03:15:22;;;;;;;4.05;1.15;;;12.00;99.90;;;;;;5101565;28;20024;-73
2023/10/30 03:17:47;;;;;;;2.55;0.43;;;12.10;99.90;;;;;;5120025;28;20023;-73
2023/10/30 03:20:14;;;;;;;3.58;0.70;;;12.10;99.90;;;;;;5119699;28;20440;-73
2023/10/30 03:22:40;;;;;;;3.92;0.80;;;12.10;99.90;;;;;;5120102;28;20055;-73
2023/10/30 03:25:06;;;;;;;2.53;0.65;;;12.10;99.90;;;;;;5119723;28;20015;-73
2023/10/30 03:27:33;;;;;;;1.42;0.38;;;12.10;99.90;;;;;;5101702;28;20031;-73
2023/10/30 03:29:58;;;;;;;3.25;0.57;;;12.10;99.90;;;;;;5119798;28;20052;-72
2023/10/30 03:32:24;;;;;;;4.13;0.60;;;12.00;99.90;;;;;;5119886;28;20547;-73
2023/10/30 03:34:50;;;;;;;3.10;0.68;;;12.10;99.90;;;;;;5119718;28;20039;-72
2023/10/30 03:37:15;;;;;;;1.77;0.40;;;12.10;99.90;;;;;;5119524;28;20484;-72
2023/10/30 03:39:41;;;;;;;3.03;0.60;;;12.10;99.90;;;;;;5119532;28;20034;-72
2023/10/30 03:42:06;;;;;;;1.98;0.60;;;12.10;99.90;;;;;;5119097;28;20499;-72
2023/10/30 03:44:32;;;;;;;1.65;0.30;;;12.10;99.90;;;;;;5119723;28;20020;-72
2023/10/30 03:46:58;;;;;;;4.15;0.50;;;12.10;99.90;;;;;;5101154;28;20369;-72
2023/10/30 03:49:24;;;;;;;2.17;0.50;;;12.10;99.90;;;;;;5119410;28;20019;-72
2023/10/30 03:51:51;;;;;;;2.22;0.45;;;12.10;99.90;;;;;;5128812;27;20475;-71
2023/10/30 03:54:16;;;;;;;0.68;0.35;;;12.10;99.90;;;;;;5119302;28;20020;-71
2023/10/30 03:56:42;;;;;;;1.33;0.40;;;12.10;99.90;;;;;;5119165;28;20028;-71
2023/10/30 03:59:08;;;;;;;1.27;0.40;;;12.10;99.90;;;;;;5100893;28;20031;-72
2023/10/30 04:01:35;;;;;;;1.42;0.35;;;12.10;99.90;;;;;;5119176;28;20450;-71
2023/10/30 04:04:01;;;;;;;1.00;0.30;;;12.10;99.90;;;;;;5100423;28;20020;-72
2023/10/30 04:06:27;;;;;;;1.30;0.32;;;12.10;99.90;;;;;;5118491;28;20391;-71
2023/10/30 04:08:52;;;;;;;0.95;0.30;;;12.10;99.90;;;;;;5119171;28;20112;-71
2023/10/30 04:11:18;;;;;;;2.65;0.47;;;12.00;99.90;;;;;;5118994;28;20036;-71
2023/10/30 04:13:44;;;;;;;0.80;0.30;;;12.10;99.90;;;;;;5117827;28;20081;-72
2023/10/30 04:16:11;;;;;;;1.42;0.20;;;12.00;99.90;;;;;;5118952;28;20019;-72
2023/10/30 04:18:37;;;;;;;3.00;0.50;;;12.00;99.90;;;;;;5119009;28;20451;-71
2023/10/30 04:21:04;;;;;;;1.50;0.32;;;12.00;99.90;;;;;;5119040;28;20042;-71
2023/10/30 04:23:30;;;;;;;2.17;0.40;;;12.00;99.90;;;;;;5118901;28;20027;-71
2023/10/30 04:25:56;;;;;;;0.85;0.32;;;12.00;99.90;;;;;;5118531;28;20016;-71
2023/10/30 04:28:21;;;;;;;1.17;0.40;;;11.90;99.90;;;;;;5118758;28;20080;-71
2023/10/30 04:30:47;;;;;;;0.88;0.32;;;11.90;99.90;;;;;;5100530;28;20027;-71
2023/10/30 04:33:13;;;;;;;2.05;0.43;;;11.90;99.90;;;;;;5118553;28;20019;-71
2023/10/30 04:35:38;;;;;;;1.27;0.47;;;11.80;99.90;;;;;;5118734;28;20020;-71
2023/10/30 04:38:05;;;;;;;0.88;0.20;;;11.80;99.90;;;;;;5118417;28;20028;-71
2023/10/30 04:40:30;;;;;;;1.45;0.40;;;11.80;99.90;;;;;;5118284;28;20052;-72
2023/10/30 04:42:56;;;;;;;1.88;0.40;;;11.80;99.90;;;;;;5100071;28;20031;-72
2023/10/30 04:45:21;;;;;;;1.00;0.40;;;11.80;99.90;;;;;;5118530;28;20020;-72
2023/10/30 04:47:47;;;;;;;1.40;0.40;;;11.70;99.90;;;;;;5118389;28;20031;-72
2023/10/30 04:50:13;;;;;;;0.57;0.30;;;11.70;99.90;;;;;;5120610;27;20030;-72
2023/10/30 04:52:38;;;;;;;2.63;0.30;;;11.70;99.90;;;;;;5125417;27;20038;-72
2023/10/30 04:55:04;;;;;;;0.70;0.25;;;11.70;99.90;;;;;;5099690;28;20027;-72
2023/10/30 04:57:30;;;;;;;2.63;0.40;;;11.70;99.90;;;;;;5117896;28;20480;-72
2023/10/30 04:59:55;;;;;;;1.52;0.38;;;11.70;99.90;;;;;;5118253;28;20054;-72
2023/10/30 05:02:21;;;;;;;1.08;0.30;;;11.70;99.90;;;;;;5099663;28;20040;-72
2023/10/30 05:04:47;;;;;;;1.83;0.40;;;11.60;99.90;;;;;;5099899;28;20028;-72
2023/10/30 05:07:12;;;;;;;2.78;0.40;;;11.70;99.90;;;;;;5099819;28;20020;-72
2023/10/30 05:09:38;;;;;;;1.13;0.38;;;11.60;99.90;;;;;;5118020;28;20028;-72
2023/10/30 05:12:04;;;;;;;1.98;0.30;;;11.70;99.90;;;;;;5117705;28;20024;-72
2023/10/30 05:14:30;;;;;;;0.95;0.30;;;11.60;99.90;;;;;;5117879;28;20031;-72
2023/10/30 05:16:55;;;;;;;3.45;0.38;;;11.60;99.90;;;;;;5117108;28;20398;-72
2023/10/30 05:19:21;;;;;;;2.55;0.43;;;11.60;99.90;;;;;;5117748;28;20063;-72
2023/10/30 05:21:47;;;;;;;0.80;0.30;;;11.60;99.90;;;;;;5099505;28;20022;-72
2023/10/30 05:24:12;;;;;;;2.72;0.40;;;11.60;99.90;;;;;;5117779;28;20024;-72
2023/10/30 05:26:38;;;;;;;2.05;0.40;;;11.60;99.90;;;;;;5117478;28;20069;-72
2023/10/30 05:29:04;;;;;;;1.42;0.35;;;11.60;99.90;;;;;;5117765;28;20085;-72
2023/10/30 05:31:29;;;;;;;0.63;0.25;;;11.60;99.90;;;;;;5117671;28;20024;-72
2023/10/30 05:33:55;;;;;;;0.60;0.30;;;11.50;99.90;;;;;;5117434;28;20507;-72
2023/10/30 05:36:21;;;;;;;0.20;0.20;;;11.50;99.90;;;;;;5099514;28;20802;-72
2023/10/30 05:38:47;;;;;;;0.90;0.35;;;11.50;99.90;;;;;;5099303;28;20492;-72
2023/10/30 05:41:12;;;;;;;0.50;0.20;;;11.50;99.90;;;;;;5117149;28;20035;-72
2023/10/30 05:43:38;;;;;;;0.85;0.28;;;11.50;99.90;;;;;;5117518;28;20055;-72
2023/10/30 05:46:03;;;;;;;1.10;0.30;;;11.50;99.90;;;;;;5099305;28;20099;-72
2023/10/30 05:48:29;;;;;;;0.80;0.35;;;11.50;99.90;;;;;;5117563;28;20396;-72
2023/10/30 05:50:54;;;;;;;1.23;0.43;;;11.40;99.90;;;;;;5107510;28;20071;-72
2023/10/30 05:53:20;;;;;;;0.43;0.20;;;11.40;99.90;;;;;;5118567;28;20035;-72
2023/10/30 05:55:46;;;;;;;1.80;0.40;;;11.40;99.90;;;;;;5117195;28;20129;-72
2023/10/30 05:58:14;;;;;;;0.85;0.20;;;11.40;99.90;;;;;;5117701;28;20392;-72
2023/10/30 06:00:40;;;;;;;1.42;0.57;;;11.40;99.90;;;;;;5117358;28;20020;-72
2023/10/30 06:03:09;;;;;;;0.73;0.20;;;11.40;99.90;;;;;;5117356;28;20487;-71
2023/10/30 06:05:35;;;;;;;0.75;0.30;;;11.40;99.90;;;;;;5116365;28;20137;-71
2023/10/30 06:08:01;;;;;;;0.90;0.35;;;11.40;99.90;;;;;;5115365;28;20047;-72
2023/10/30 06:10:26;;;;;;;1.25;0.20;;;11.40;99.90;;;;;;5116509;28;20020;-72
2023/10/30 06:12:53;;;;;;;0.82;0.28;;;11.30;99.90;;;;;;5099847;28;20122;-72
2023/10/30 06:15:18;;;;;;;1.23;0.30;;;11.40;99.90;;;;;;5117308;28;20027;-72
2023/10/30 06:17:44;;;;;;;1.42;0.40;;;11.30;99.90;;;;;;5117013;28;20104;-72
2023/10/30 06:20:11;;;;;;;1.02;0.20;;;11.30;99.90;;;;;;5098985;28;20030;-72
2023/10/30 06:22:37;;;;;;;0.68;0.40;;;11.30;99.90;;;;;;5117135;28;20400;-72
2023/10/30 06:25:03;;;;;;;1.27;0.30;;;11.30;99.90;;;;;;5116903;28;20103;-72
2023/10/30 06:27:31;;;;;;;0.47;0.20;;;11.30;99.90;;;;;;5118759;28;20020;-72
2023/10/30 06:29:57;;;;;;;1.70;0.50;;;11.30;99.90;;;;;;5119388;28;20015;-72
2023/10/30 06:32:23;;;;;;;0.20;0.20;;;11.30;99.90;;;;;;5121171;28;20073;-72
2023/10/30 06:34:48;;;;;;;0.50;0.20;;;11.30;99.90;;;;;;5119599;28;20024;-72
2023/10/30 06:37:15;;;;;;;0.85;0.28;;;11.40;99.90;;;;;;5119807;28;20106;-72
2023/10/30 06:39:41;;;;;;;1.75;0.32;;;11.40;99.90;;;;;;5120643;28;20032;-73
2023/10/30 06:42:07;;;;;;;1.15;0.30;;;11.30;99.90;;;;;;5102048;28;20055;-72
2023/10/30 06:44:32;;;;;;;1.60;0.40;;;11.30;99.90;;;;;;5118848;28;20357;-72
2023/10/30 06:46:59;;;;;;;0.40;0.30;;;11.40;99.90;;;;;;5119306;28;20502;-73
2023/10/30 06:49:24;;;;;;;1.30;0.30;;;11.40;99.90;;;;;;5100615;28;20373;-72
2023/10/30 06:51:50;;;;;;;0.35;0.20;;;11.40;99.90;;;;;;5106668;28;20080;-72
2023/10/30 06:54:16;;;;;;;1.08;0.30;;;11.40;99.90;;;;;;5119611;28;20085;-72
2023/10/30 06:56:41;;;;;;;0.85;0.30;;;11.40;99.90;;;;;;5119932;28;20028;-72
2023/10/30 06:59:12;;;;;;;1.25;0.43;;;11.40;99.90;;;;;;5120354;28;20036;-72
2023/10/30 07:01:43;;;;;;;1.13;0.50;;;11.40;99.90;;;;;;5120301;28;20628;-72
2023/10/30 07:04:10;;;;;;;0.68;0.30;;;11.30;99.90;;;;;;5120224;28;20042;-72
2023/10/30 07:06:37;;;;;;;0.85;0.30;;;11.40;99.90;;;;;;5118962;28;20027;-72
2023/10/30 07:09:06;;;;;;;0.90;0.43;;;11.40;99.90;;;;;;5120207;28;20106;-72
2023/10/30 07:11:33;;;;;;;1.40;0.30;;;11.40;99.90;;;;;;5119947;28;20027;-72
2023/10/30 07:14:01;;;;;;;0.88;0.30;;;11.40;99.90;;;;;;5120032;28;20064;-72
2023/10/30 07:16:28;;;;;;;1.95;0.47;;;11.50;99.90;;;;;;5120109;28;20472;-72
2023/10/30 07:18:53;;;;;;;1.05;0.40;;;11.50;99.90;;;;;;5118584;28;20034;-72
2023/10/30 07:21:19;;;;;;;1.75;0.73;;;11.40;99.90;;;;;;5120162;28;20029;-72
2023/10/30 07:23:45;;;;;;;1.45;0.85;;;11.40;99.90;;;;;;5107327;28;20068;-72
2023/10/30 07:26:10;;;;;;;2.17;0.98;;;11.40;99.90;;;;;;5119289;28;20054;-73
2023/10/30 07:28:36;;;;;;;1.45;0.90;;;11.40;99.90;;;;;;5101406;28;20016;-72
2023/10/30 07:31:02;;;;;;;1.10;0.70;;;11.40;99.90;;;;;;5101486;28;20024;-73
2023/10/30 07:33:27;;;;;;;2.50;0.60;;;11.40;99.90;;;;;;5119814;28;20115;-73
2023/10/30 07:35:53;;;;;;;1.10;0.50;;;11.50;99.90;;;;;;5119590;28;20024;-73
2023/10/30 07:38:19;;;;;;;0.90;0.50;;;11.40;99.90;;;;;;5119112;28;20149;-73
2023/10/30 07:40:44;;;;;;;1.15;0.50;;;11.40;99.90;;;;;;5100420;28;20054;-74
2023/10/30 07:43:10;;;;;;;2.53;0.70;;;11.40;99.90;;;;;;5119321;28;20012;-75
2023/10/30 07:45:44;;;;;;;1.20;0.40;;;11.40;99.90;;;;;;5101330;28;20027;-73
2023/10/30 07:48:10;;;;;;;1.58;0.50;;;11.50;99.90;;;;;;5119320;28;20023;-73
2023/10/30 07:50:38;;;;;;;1.73;0.60;;;;;;;;;;5125057;27;20106;-72
2023/10/30 07:53:04;;;;;;;1.10;0.50;;;;;;;;;;5122429;27;20102;-73
2023/10/30 07:55:33;;;;;;;2.17;0.40;;;;;;;;;;5100706;28;20114;-72
2023/10/30 07:57:59;;;;;;;1.42;0.40;;;;;;;;;;5119107;28;20026;-72
2023/10/30 08:00:25;;;;;;;0.82;0.52;;;;;;;;;;5099756;28;20110;-72
2023/10/30 08:02:51;;;;;;;1.40;0.43;;;;;;;;;;5118141;28;20058;-75
2023/10/30 08:05:17;;;;;;;1.60;0.60;;;;;;;;;;5118261;28;20107;-74
2023/10/30 08:07:47;;;;;;;0.80;0.45;;;;;;;;;;5118297;28;20019;-74
2023/10/30 08:10:13;;;;;;;1.77;0.60;;;;;;;;;;5118514;28;20123;-73
2023/10/30 08:12:40;;;;;;;0.80;0.43;;;;;;;;;;5100315;28;20084;-73
2023/10/30 08:15:07;;;;;;;1.75;0.38;;;11.80;99.90;;;;;;5100586;28;20111;-73
2023/10/30 08:17:32;;;;;;;0.35;0.30;;;11.90;99.90;;;;;;5100052;28;20020;-71
2023/10/30 08:19:58;;;;;;;0.65;0.28;;;11.90;99.90;;;;;;5118710;28;20031;-71
2023/10/30 08:22:24;;;;;;;3.20;0.80;;;11.90;99.90;;;;;;5118674;28;20480;-72
2023/10/30 08:24:51;;;;;;;1.00;0.50;;;11.90;99.90;;;;;;5118554;28;20498;-69
2023/10/30 08:27:17;;;;;;;1.38;0.50;;;11.90;99.90;;;;;;5118439;28;20540;-72
2023/10/30 08:29:42;;;;;;;1.38;0.43;;;11.90;99.90;;;;;;5118832;28;20028;-72
2023/10/30 08:32:08;;;;;;;1.10;0.45;;;11.90;99.90;;;;;;5100050;28;20517;-75
2023/10/30 08:34:34;;;;;;;1.23;0.50;;;11.90;99.90;;;;;;5118325;28;20023;-73
2023/10/30 08:36:59;;;;;;;0.80;0.40;;;12.00;99.90;;;;;;5117850;28;20111;-73
2023/10/30 08:39:25;;;;;;;1.67;0.57;;;11.90;99.90;;;;;;5117815;28;20039;-73
2023/10/30 08:41:51;;;;;;;1.75;0.50;;;12.00;99.90;;;;;;5117933;28;20015;-73
2023/10/30 08:44:17;;;;;;;2.25;0.40;;;11.90;99.90;;;;;;5118450;28;20019;-73
2023/10/30 08:46:42;;;;;;;1.70;0.50;;;12.00;99.90;;;;;;5118128;28;20023;-74
2023/10/30 08:49:08;;;;;;;0.85;0.50;;;12.00;99.90;;;;;;5118277;28;20050;-71
2023/10/30 08:51:40;;;;;;;1.35;0.60;;;12.00;99.90;;;;;;5127572;27;20027;-72
2023/10/30 08:54:06;;;;;;;1.83;0.63;;;12.00;99.90;;;;;;5118241;28;20020;-71
2023/10/30 08:56:32;;;;;;;2.15;0.55;;;12.00;99.90;;;;;;5117681;28;20030;-71
2023/10/30 08:58:57;;;;;;;1.83;0.47;;;12.10;99.90;;;;;;5118071;28;20024;-71
2023/10/30 09:01:23;;;;;;;1.63;0.60;;;12.20;99.90;;;;;;5099377;28;20039;-72
2023/10/30 09:03:49;;;;;;;1.42;0.40;;;12.20;99.90;;;;;;5118074;28;20035;-72
2023/10/30 09:06:14;;;;;;;2.22;0.65;;;12.20;99.90;;;;;;5117963;28;20016;-72
2023/10/30 09:08:40;;;;;;;1.58;0.50;;;12.30;99.90;;;;;;5099601;28;20027;-74
2023/10/30 09:11:06;;;;;;;0.90;0.47;;;12.40;99.90;;;;;;5100088;27;20027;-75
2023/10/30 09:13:31;;;;;;;1.65;0.63;;;12.50;99.90;;;;;;5122044;27;20030;-75
2023/10/30 09:15:57;;;;;;;1.58;0.80;;;12.60;99.90;;;;;;5120410;27;20046;-73
2023/10/30 09:18:22;;;;;;;2.30;1.13;;;12.70;99.90;;;;;;5118140;27;20015;-74
2023/10/30 09:20:48;;;;;;;1.08;0.60;;;12.70;99.90;;;;;;5120832;27;20031;-74
2023/10/30 09:23:14;;;;;;;1.38;0.63;;;12.80;99.90;;;;;;5121903;28;20022;-74
2023/10/30 09:25:39;;;;;;;2.13;1.08;;;12.90;99.90;;;;;;5099453;27;20114;-75
2023/10/30 09:28:05;;;;;;;1.17;0.82;;;13.00;99.90;;;;;;5103204;28;20019;-76
2023/10/30 09:30:30;;;;;;;1.25;0.63;;;13.20;99.90;;;;;;5117051;28;20055;-74
2023/10/30 09:32:59;;;;;;;2.75;0.60;;;13.30;99.90;;;;;;5118157;28;20509;-74
2023/10/30 09:35:29;;;;;;;1.48;0.73;;;13.30;99.90;;;;;;5124898;28;20400;-74
2023/10/30 09:37:56;;;;;;;1.73;0.68;;;13.20;99.90;;;;;;5112288;28;20016;-75
2023/10/30 09:40:25;;;;;;;0.93;0.50;;;13.10;99.90;;;;;;5099799;28;20023;-74
2023/10/30 09:42:52;;;;;;;0.73;0.40;;;13.00;99.90;;;;;;5102201;28;20012;-76
2023/10/30 09:45:24;;;;;;;1.30;0.55;;;12.90;99.90;;;;;;5125414;28;20030;-76
2023/10/30 09:47:57;;;;;;;1.10;0.50;;;12.90;99.90;;;;;;5106805;28;20043;-75
2023/10/30 09:50:25;;;;;;;1.15;0.40;;;12.80;99.90;;;;;;5122171;28;20019;-74
2023/10/30 09:52:54;;;;;;;2.17;0.50;;;12.80;99.90;;;;;;5105791;28;20020;-76
2023/10/30 09:55:22;;;;;;;1.02;0.40;;;12.80;99.90;;;;;;5115341;28;20399;-75
2023/10/30 09:57:48;;;;;;;0.80;0.40;;;12.80;99.90;;;;;;5115574;28;20027;-74
2023/10/30 10:00:15;;;;;;;1.15;0.47;;;12.80;99.90;;;;;;5121064;28;20026;-76
2023/10/30 10:02:41;;;;;;;0.73;0.47;;;12.80;99.90;;;;;;5101510;27;20038;-75
2023/10/30 10:05:12;;;;;;;1.73;0.50;;;12.80;99.90;;;;;;5111808;27;20034;-75
2023/10/30 10:07:38;;;;;;;1.63;0.60;;;12.80;99.90;;;;;;5133881;27;20142;-74
2023/10/30 10:10:06;;;;;;;1.15;0.50;;;12.90;99.90;;;;;;5126284;27;20051;-75
2023/10/30 10:12:35;;;;;;;1.05;0.50;;;13.00;99.90;;;;;;5107253;27;20028;-75
2023/10/30 10:15:06;;;;;;;0.43;0.40;;;13.10;99.90;;;;;;5119371;27;20025;-75
2023/10/30 10:17:32;;;;;;;0.82;0.40;;;13.10;99.90;;;;;;5125013;27;20015;-75
2023/10/30 10:20:04;;;;;;;1.33;0.50;;;13.10;99.90;;;;;;5124757;27;20019;-74
2023/10/30 10:22:31;;;;;;;0.95;0.40;;;13.10;99.90;;;;;;5123266;27;20019;-76
2023/10/30 10:24:57;;;;;;;1.90;0.65;;;13.10;99.90;;;;;;5106184;28;20034;-75
2023/10/30 10:27:25;;;;;;;2.47;0.60;;;13.00;99.90;;;;;;5123558;27;20052;-73
2023/10/30 10:29:55;;;;;;;1.20;0.50;;;13.00;99.90;;;;;;5129615;27;20027;-72
2023/10/30 10:32:27;;;;;;;2.33;0.55;;;13.00;99.90;;;;;;5122780;27;20027;-72
2023/10/30 10:34:57;;;;;;;0.90;0.50;;;12.90;99.90;;;;;;5101919;28;20082;-71
2023/10/30 10:37:23;;;;;;;1.17;0.40;;;12.90;99.90;;;;;;5124582;27;20032;-72
2023/10/30 10:39:50;;;;;;;1.48;0.60;;;12.90;99.90;;;;;;5128764;27;20513;-74
2023/10/30 10:42:23;;;;;;;1.33;0.55;;;12.90;99.90;;;;;;5117372;27;20377;-72
2023/10/30 10:44:51;;;;;;;1.60;0.50;;;13.00;99.90;;;;;;5133089;27;20023;-71
2023/10/30 10:47:18;;;;;;;0.80;0.40;;;12.90;99.90;;;;;;5129413;27;20024;-76
2023/10/30 10:49:44;;;;;;;0.93;0.50;;;12.90;99.90;;;;;;5112175;27;20490;-75
2023/10/30 10:52:14;;;;;;;0.93;0.40;;;12.90;99.90;;;;;;5129484;27;20028;-74
2023/10/30 10:55:04;;;;;;;1.80;0.40;;;12.80;99.90;;;;;;5126347;27;20031;-74
2023/10/30 10:58:16;;;;;;;2.63;0.95;;;12.90;99.90;;;;;;5137355;27;20019;-74
2023/10/30 11:00:52;;;;;;;1.23;0.60;;;12.90;99.90;;;;;;5108355;27;20035;-72
2023/10/30 11:03:19;;;;;;;2.13;0.95;;;12.90;99.90;;;;;;5108027;28;20027;-72
2023/10/30 11:05:47;;;;;;;2.40;1.00;;;12.90;99.90;;;;;;5125445;27;20015;-72
2023/10/30 11:08:28;;;;;;;1.90;1.00;;;12.80;99.90;;;;;;5127658;27;20446;-72
2023/10/30 11:11:19;;;;;;;2.30;1.13;;;12.80;99.90;;;;;;5120939;27;20049;-73
2023/10/30 11:14:22;;;;;;;2.55;1.10;;;12.90;99.90;;;;;;5111766;28;20023;-71
2023/10/30 11:16:58;;;;;;;2.38;1.25;;;12.80;99.90;;;;;;5115562;28;20020;-72
2023/10/30 11:19:26;;;;;;;2.08;0.95;;;12.80;99.90;;;;;;5119691;28;20027;-71
2023/10/30 11:21:51;;;;;;;1.55;1.00;;;12.80;99.90;;;;;;5085045;28;20031;-74
2023/10/30 11:24:40;;;;;;;1.02;0.70;;;12.70;99.90;;;;;;5114712;27;20059;-72
2023/10/30 11:27:27;;;;;;;1.58;0.85;;;12.60;99.90;;;;;;5124282;27;20023;-72
2023/10/30 11:30:00;;;;;;;1.05;0.80;;;12.60;99.90;;;;;;5115915;27;20038;-73
2023/10/30 11:32:29;;;;;;;1.48;0.75;;;12.50;99.90;;;;;;5098319;28;20024;-72
2023/10/30 11:34:55;;;;;;;2.95;0.80;;;12.50;99.90;;;;;;5119303;28;20511;-74
2023/10/30 11:37:23;;;;;;;2.05;0.75;;;12.50;99.90;;;;;;5103146;28;20015;-70
2023/10/30 11:39:53;;;;;;;2.63;0.80;;;12.50;99.90;;;;;;5098555;28;20069;-71
2023/10/30 11:42:21;;;;;;;1.98;0.90;;;12.50;99.90;;;;;;5113165;27;20114;-71
2023/10/30 11:44:47;;;;;;;2.03;0.90;;;12.50;99.90;;;;;;5100723;28;20015;-73
2023/10/30 11:47:13;;;;;;;10.32;0.93;;;12.40;99.90;;;;;;5124027;27;20016;-72
2023/10/30 11:49:41;;;;;;;1.38;0.60;;;12.40;99.90;;;;;;5118801;28;20208;-73
2023/10/30 11:52:10;;;;;;;1.10;0.77;;;12.20;99.90;;;;;;5123492;27;20019;-72
2023/10/30 11:54:40;;;;;;;3.05;1.20;;;12.00;99.90;;;;;;5118588;28;20030;-73
2023/10/30 11:57:06;;;;;;;1.55;0.80;;;12.10;99.90;;;;;;5099387;28;20019;-71
2023/10/30 11:59:32;;;;;;;1.42;0.60;;;11.70;99.90;;;;;;5100721;28;20062;-71
2023/10/30 12:01:58;;;;;;;1.95;0.50;;;11.70;99.90;;;;;;5118794;28;20039;-72
2023/10/30 12:04:25;;;;;;;4.75;0.70;;;11.50;99.90;;;;;;5118980;28;20027;-72
2023/10/30 12:06:51;;;;;;;1.35;0.60;;;11.40;99.90;;;;;;5118965;28;20016;-72
2023/10/30 12:09:17;;;;;;;0.57;0.40;;;11.30;99.90;;;;;;5100359;28;20067;-73
2023/10/30 12:11:43;;;;;;;2.53;0.60;;;11.30;99.90;;;;;;5099961;28;20019;-72
2023/10/30 12:14:11;;;;;;;0.80;0.50;;;11.30;99.90;;;;;;5118505;28;20556;-71
2023/10/30 12:16:37;;;;;;;1.08;0.50;;;11.30;99.90;;;;;;5118606;28;20016;-72
2023/10/30 12:19:03;;;;;;;0.95;0.60;;;11.40;99.90;;;;;;5118444;28;20392;-72
2023/10/30 12:21:32;;;;;;;0.77;0.45;;;11.50;99.90;;;;;;5118950;28;20043;-69
2023/10/30 12:23:59;;;;;;;0.40;0.35;;;11.60;99.90;;;;;;5118592;28;20103;-71
2023/10/30 12:26:27;;;;;;;0.50;0.30;;;11.40;99.90;;;;;;5118837;27;20020;-72
2023/10/30 12:28:58;;;;;;;0.80;0.40;;;11.50;99.90;;;;;;5118359;28;20472;-72
2023/10/30 12:31:25;;;;;;;0.60;0.50;;;11.60;99.90;;;;;;5118710;28;20480;-72
2023/10/30 12:34:10;;;;;;;0.93;0.47;;;11.80;99.90;;;;;;5118533;28;20015;-68
2023/10/30 12:36:36;;;;;;;1.50;0.68;;;11.90;99.90;;;;;;5100087;28;20020;-68
2023/10/30 12:39:18;;;;;;;2.35;0.60;;;12.10;99.90;;;;;;5100259;28;20089;-68
2023/10/30 12:41:46;;;;;;;1.65;0.50;;;12.10;99.90;;;;;;5117940;28;20012;-72
2023/10/30 12:44:14;;;;;;;1.17;0.57;;;12.30;99.90;;;;;;5118606;28;20019;-72
2023/10/30 12:46:40;;;;;;;1.73;0.63;;;12.20;99.90;;;;;;5118240;28;20428;-72
2023/10/30 12:49:05;;;;;;;1.85;0.50;;;12.30;99.90;;;;;;5100011;28;20055;-71